createdAt,value
2023-03-26T00:01:23.735Z,100682.00
2023-03-26T00:03:55.296Z,100676.00
2023-03-26T00:06:23.980Z,100679.00
2023-03-26T00:08:51.401Z,100679.00
2023-03-26T00:11:19.930Z,100672.00
2023-03-26T00:13:47.651Z,100673.00
2023-03-26T00:16:17.236Z,100656.00
2023-03-26T00:18:44.934Z,100658.00
2023-03-26T00:21:14.518Z,100661.00
2023-03-26T00:23:41.604Z,100662.00
2023-03-26T00:26:12.898Z,100655.00
2023-03-26T00:28:41.514Z,100651.00
2023-03-26T00:31:10.724Z,100647.00
2023-03-26T00:33:38.425Z,100643.00
2023-03-26T00:36:10.061Z,100636.00
2023-03-26T00:38:39.205Z,100631.00
2023-03-26T00:41:17.979Z,100631.00
2023-03-26T00:43:46.631Z,100618.00
2023-03-26T00:46:13.873Z,100598.00
2023-03-26T00:48:45.855Z,100590.00
2023-03-26T00:51:17.531Z,100589.00
2023-03-26T00:53:46.349Z,100575.00
2023-03-26T00:56:13.685Z,100575.00
2023-03-26T00:58:40.940Z,100574.00
2023-03-26T01:01:18.965Z,100564.00
2023-03-26T01:03:57.084Z,100565.00
2023-03-26T01:06:34.227Z,100547.00
2023-03-26T01:09:12.727Z,100543.00
2023-03-26T01:11:39.340Z,100548.00
2023-03-26T01:14:10.359Z,100545.00
2023-03-26T01:16:50.098Z,100550.00
2023-03-26T01:19:45.193Z,100543.00
2023-03-26T01:22:16.598Z,100531.00
2023-03-26T01:24:46.102Z,100537.00
2023-03-26T01:27:27.647Z,100526.00
2023-03-26T01:30:20.899Z,100529.00
2023-03-26T01:33:16.545Z,100527.00
2023-03-26T01:36:00.461Z,100528.00
2023-03-26T01:38:37.541Z,100523.00
2023-03-26T01:41:05.549Z,100513.00
2023-03-26T01:43:56.354Z,100506.00
2023-03-26T01:46:25.680Z,100504.00
2023-03-26T01:48:52.402Z,100492.00
2023-03-26T01:51:34.605Z,100483.00
2023-03-26T01:54:04.266Z,100485.00
2023-03-26T01:56:36.863Z,100479.00
2023-03-26T01:59:25.417Z,100469.00
2023-03-26T02:02:16.568Z,100468.00
2023-03-26T02:04:55.709Z,100459.00
2023-03-26T02:07:38.083Z,100449.00
2023-03-26T02:10:14.869Z,100447.00
2023-03-26T02:12:43.830Z,100445.00
2023-03-26T02:15:11.820Z,100442.00
2023-03-26T02:17:41.628Z,100435.00
2023-03-26T02:20:11.343Z,100433.00
2023-03-26T02:22:41.838Z,100428.00
2023-03-26T02:25:10.307Z,100422.00
2023-03-26T02:27:37.747Z,100419.00
2023-03-26T02:30:09.562Z,100408.00
2023-03-26T02:32:36.371Z,100408.00
2023-03-26T02:35:05.456Z,100403.00
2023-03-26T02:37:33.950Z,100397.00
2023-03-26T02:40:01.289Z,100385.00
2023-03-26T02:42:28.078Z,100380.00
2023-03-26T02:44:54.686Z,100370.00
2023-03-26T02:47:21.235Z,100364.00
2023-03-26T02:49:47.898Z,100362.00
2023-03-26T02:52:17.135Z,100356.00
2023-03-26T02:54:43.746Z,100352.00
2023-03-26T02:57:10.306Z,100345.00
2023-03-26T02:59:36.910Z,100335.00
2023-03-26T03:02:04.081Z,100315.00
2023-03-26T03:04:30.685Z,100315.00
2023-03-26T03:06:57.680Z,100307.00
2023-03-26T03:09:27.644Z,100305.00
2023-03-26T03:11:54.258Z,100308.00
2023-03-26T03:14:21.128Z,100295.00
2023-03-26T03:16:47.756Z,100297.00
2023-03-26T03:19:14.537Z,100297.00
2023-03-26T03:21:42.077Z,100289.00
2023-03-26T03:24:09.548Z,100282.00
2023-03-26T03:26:36.487Z,100273.00
2023-03-26T03:29:03.404Z,100258.00
2023-03-26T03:31:30.074Z,100252.00
2023-03-26T03:33:56.786Z,100249.00
2023-03-26T03:36:27.673Z,100243.00
2023-03-26T03:38:54.287Z,100238.00
2023-03-26T03:41:20.895Z,100234.00
2023-03-26T03:43:47.470Z,100226.00
2023-03-26T03:46:14.071Z,100220.00
2023-03-26T03:48:40.714Z,100214.00
2023-03-26T03:51:07.398Z,100206.00
2023-03-26T03:53:37.281Z,100203.00
2023-03-26T03:56:04.680Z,100207.00
2023-03-26T03:58:31.397Z,100209.00
2023-03-26T04:01:04.195Z,100203.00
2023-03-26T04:03:33.353Z,100205.00
2023-03-26T04:06:01.343Z,100201.00
2023-03-26T04:08:27.995Z,100188.00
2023-03-26T04:10:54.563Z,100189.00
2023-03-26T04:13:21.542Z,100182.00
2023-03-26T04:15:48.336Z,100180.00
2023-03-26T04:18:15.219Z,100182.00
2023-03-26T04:20:47.420Z,100177.00
2023-03-26T04:23:14.941Z,100162.00
2023-03-26T04:25:45.901Z,100161.00
2023-03-26T04:28:26.457Z,100155.00
2023-03-26T04:30:54.715Z,100151.00
2023-03-26T04:33:21.534Z,100148.00
2023-03-26T04:35:48.493Z,100149.00
2023-03-26T04:38:16.947Z,100140.00
2023-03-26T04:40:47.394Z,100139.00
2023-03-26T04:43:16.504Z,100128.00
2023-03-26T04:45:43.660Z,100130.00
2023-03-26T04:48:14.385Z,100116.00
2023-03-26T04:50:45.659Z,100119.00
2023-03-26T04:53:16.163Z,100108.00
2023-03-26T04:55:49.487Z,100104.00
2023-03-26T04:58:16.428Z,100099.00
2023-03-26T05:00:43.462Z,100092.00
2023-03-26T05:03:11.779Z,100087.00
2023-03-26T05:05:39.920Z,100083.00
2023-03-26T05:08:06.986Z,100074.00
2023-03-26T05:10:33.712Z,100074.00
2023-03-26T05:13:00.380Z,100076.00
2023-03-26T05:15:27.116Z,100069.00
2023-03-26T05:17:55.487Z,100064.00
2023-03-26T05:20:28.112Z,100064.00
2023-03-26T05:22:54.703Z,100065.00
2023-03-26T05:25:21.464Z,100061.00
2023-03-26T05:27:48.350Z,100063.00
2023-03-26T05:30:17.631Z,100067.00
2023-03-26T05:32:44.451Z,100057.00
2023-03-26T05:35:11.779Z,100060.00
2023-03-26T05:37:38.961Z,100054.00
2023-03-26T05:40:12.334Z,100053.00
2023-03-26T05:42:39.855Z,100062.00
2023-03-26T05:45:08.240Z,100059.00
2023-03-26T05:47:35.518Z,100052.00
2023-03-26T05:50:02.347Z,100052.00
2023-03-26T05:52:29.147Z,100049.00
2023-03-26T05:54:55.796Z,100042.00
2023-03-26T05:57:23.906Z,100040.00
2023-03-26T05:59:50.837Z,100042.00
2023-03-26T06:02:17.466Z,100051.00
2023-03-26T06:04:45.798Z,100036.00
2023-03-26T06:07:12.727Z,100038.00
2023-03-26T06:09:40.204Z,100039.00
2023-03-26T06:12:08.202Z,100045.00
2023-03-26T06:14:35.315Z,100046.00
2023-03-26T06:17:02.254Z,100052.00
2023-03-26T06:19:28.844Z,100051.00
2023-03-26T06:21:55.776Z,100046.00
2023-03-26T06:24:22.472Z,100049.00
2023-03-26T06:26:49.176Z,100049.00
2023-03-26T06:29:16.104Z,100042.00
2023-03-26T06:31:42.869Z,100043.00
2023-03-26T06:34:09.666Z,100043.00
2023-03-26T06:36:36.954Z,100045.00
2023-03-26T06:39:07.800Z,100043.00
2023-03-26T06:41:35.277Z,100037.00
2023-03-26T06:44:01.960Z,100039.00
2023-03-26T06:46:29.186Z,100039.00
2023-03-26T06:48:55.852Z,100041.00
2023-03-26T06:51:22.492Z,100039.00
2023-03-26T06:53:49.177Z,100034.00
2023-03-26T06:56:15.937Z,100031.00
2023-03-26T06:58:42.531Z,100038.00
2023-03-26T07:01:09.408Z,100040.00
2023-03-26T07:03:36.077Z,100042.00
2023-03-26T07:06:02.786Z,100042.00
2023-03-26T07:08:30.914Z,100032.00
2023-03-26T07:10:57.785Z,100034.00
2023-03-26T07:13:24.692Z,100031.00
2023-03-26T07:15:51.439Z,100029.00
2023-03-26T07:18:18.326Z,100027.00
2023-03-26T07:20:46.161Z,100026.00
2023-03-26T07:23:15.566Z,100039.00
2023-03-26T07:25:42.587Z,100032.00
2023-03-26T07:28:37.389Z,100032.00
2023-03-26T07:31:13.110Z,100038.00
2023-03-26T07:33:45.553Z,100039.00
2023-03-26T07:36:45.461Z,100041.00
2023-03-26T07:39:53.393Z,100038.00
2023-03-26T07:42:44.276Z,100038.00
2023-03-26T07:45:16.217Z,100039.00
2023-03-26T07:47:45.050Z,100045.00
2023-03-26T07:50:20.453Z,100038.00
2023-03-26T07:52:47.287Z,100040.00
2023-03-26T07:55:15.736Z,100040.00
2023-03-26T07:58:01.097Z,100033.00
2023-03-26T08:00:45.788Z,100034.00
2023-03-26T08:03:21.258Z,100037.00
2023-03-26T08:06:16.018Z,100039.00
2023-03-26T08:08:57.557Z,100037.00
2023-03-26T08:11:34.999Z,100036.00
2023-03-26T08:14:17.775Z,100039.00
2023-03-26T08:16:59.143Z,100042.00
2023-03-26T08:19:35.232Z,100045.00
2023-03-26T08:22:16.863Z,100044.00
2023-03-26T08:24:55.664Z,100044.00
2023-03-26T08:27:34.555Z,100055.00
2023-03-26T08:30:09.841Z,100052.00
2023-03-26T08:32:36.670Z,100053.00
2023-03-26T08:35:04.400Z,100054.00
2023-03-26T08:37:31.216Z,100057.00
2023-03-26T08:39:57.825Z,100061.00
2023-03-26T08:42:35.960Z,100067.00
2023-03-26T08:45:39.178Z,100070.00
2023-03-26T08:48:18.000Z,100069.00
2023-03-26T08:51:30.610Z,100069.00
2023-03-26T08:54:29.534Z,100075.00
2023-03-26T08:57:08.046Z,100083.00
2023-03-26T08:59:46.483Z,100088.00
2023-03-26T09:02:28.346Z,100086.00
2023-03-26T09:05:19.154Z,100090.00
2023-03-26T09:08:04.676Z,100096.00
2023-03-26T09:10:52.455Z,100088.00
2023-03-26T09:13:25.632Z,100103.00
2023-03-26T09:16:19.893Z,100101.00
2023-03-26T09:19:30.522Z,100099.00
2023-03-26T09:22:27.335Z,100107.00
2023-03-26T09:25:26.157Z,100105.00
2023-03-26T09:28:22.111Z,100116.00
2023-03-26T09:31:11.956Z,100112.00
2023-03-26T09:33:42.788Z,100118.00
2023-03-26T09:36:21.785Z,100115.00
2023-03-26T09:39:29.825Z,100125.00
2023-03-26T09:42:17.519Z,100116.00
2023-03-26T09:45:10.694Z,100126.00
2023-03-26T09:48:05.438Z,100122.00
2023-03-26T09:50:39.189Z,100126.00
2023-03-26T09:53:32.601Z,100131.00
2023-03-26T09:56:23.467Z,100143.00
2023-03-26T09:59:04.779Z,100140.00
2023-03-26T10:01:58.157Z,100140.00
2023-03-26T10:04:28.938Z,100142.00
2023-03-26T10:07:20.204Z,100143.00
2023-03-26T10:09:54.392Z,100161.00
2023-03-26T10:12:36.609Z,100159.00
2023-03-26T10:15:43.353Z,100165.00
2023-03-26T10:18:32.742Z,100165.00
2023-03-26T10:21:07.186Z,100168.00
2023-03-26T10:24:13.713Z,100180.00
2023-03-26T10:27:08.705Z,100182.00
2023-03-26T10:29:45.748Z,100184.00
2023-03-26T10:32:30.925Z,100193.00
2023-03-26T10:35:19.390Z,100196.00
2023-03-26T10:37:54.367Z,100194.00
2023-03-26T10:40:23.871Z,100196.00
2023-03-26T10:43:08.941Z,100207.00
2023-03-26T10:45:42.375Z,100212.00
2023-03-26T10:48:27.145Z,100213.00
2023-03-26T10:51:05.518Z,100216.00
2023-03-26T10:54:00.676Z,100225.00
2023-03-26T10:56:33.090Z,100235.00
2023-03-26T10:59:05.740Z,100242.00
2023-03-26T11:02:06.372Z,100242.00
2023-03-26T11:05:10.399Z,100259.00
2023-03-26T11:07:51.783Z,100258.00
2023-03-26T11:10:36.899Z,100257.00
2023-03-26T11:13:24.397Z,100261.00
2023-03-26T11:15:55.839Z,100277.00
2023-03-26T11:18:39.840Z,100276.00
2023-03-26T11:21:33.668Z,100281.00
2023-03-26T11:24:38.720Z,100281.00
2023-03-26T11:27:30.918Z,100289.00
2023-03-26T11:30:06.420Z,100294.00
2023-03-26T11:32:45.166Z,100294.00
2023-03-26T11:35:40.577Z,100305.00
2023-03-26T11:38:31.925Z,100307.00
2023-03-26T11:41:01.938Z,100308.00
2023-03-26T11:43:35.102Z,100308.00
2023-03-26T11:46:04.739Z,100318.00
2023-03-26T11:48:37.500Z,100315.00
2023-03-26T11:51:20.536Z,100335.00
2023-03-26T11:53:47.269Z,100337.00
2023-03-26T11:56:41.896Z,100342.00
2023-03-26T11:59:39.242Z,100347.00
2023-03-26T12:02:18.392Z,100356.00
2023-03-26T12:07:18.882Z,100359.00
2023-03-26T12:10:17.748Z,100362.00
2023-03-26T12:12:47.540Z,100367.00
2023-03-26T12:15:20.382Z,100372.00
2023-03-26T12:17:51.486Z,100376.00
2023-03-26T12:20:27.012Z,100386.00
2023-03-26T12:23:00.835Z,100385.00
2023-03-26T12:25:30.029Z,100394.00
2023-03-26T12:28:02.739Z,100398.00
2023-03-26T12:30:37.992Z,100394.00
2023-03-26T12:33:07.727Z,100403.00
2023-03-26T12:35:35.779Z,100409.00
2023-03-26T12:38:40.725Z,100410.00
2023-03-26T12:44:47.167Z,100416.00
2023-03-26T12:44:59.170Z,100423.00
2023-03-26T12:48:01.303Z,100426.00
2023-03-26T12:50:34.514Z,100424.00
2023-03-26T12:53:14.919Z,100435.00
2023-03-26T12:55:57.761Z,100429.00
2023-03-26T12:58:39.573Z,100437.00
2023-03-26T13:01:09.304Z,100440.00
2023-03-26T13:04:08.361Z,100444.00
2023-03-26T13:07:02.218Z,100442.00
2023-03-26T13:09:44.261Z,100445.00
2023-03-26T13:12:29.464Z,100458.00
2023-03-26T13:15:03.782Z,100449.00
2023-03-26T13:17:43.771Z,100460.00
2023-03-26T13:20:29.493Z,100465.00
2023-03-26T13:23:12.486Z,100462.00
2023-03-26T13:26:01.263Z,100464.00
2023-03-26T13:28:56.961Z,100461.00
2023-03-26T13:31:36.504Z,100474.00
2023-03-26T13:34:18.683Z,100469.00
2023-03-26T13:37:14.612Z,100481.00
2023-03-26T13:40:05.038Z,100491.00
2023-03-26T13:42:46.125Z,100491.00
2023-03-26T13:45:46.967Z,100491.00
2023-03-26T13:48:19.114Z,100487.00
2023-03-26T13:50:57.225Z,100500.00
2023-03-26T13:53:29.331Z,100514.00
2023-03-26T13:55:59.182Z,100513.00
2023-03-26T13:58:50.686Z,100520.00
2023-03-26T14:01:26.249Z,100519.00
2023-03-26T14:04:03.503Z,100526.00
2023-03-26T14:06:46.824Z,100540.00
2023-03-26T14:09:36.280Z,100545.00
2023-03-26T14:12:21.341Z,100547.00
2023-03-26T14:15:06.631Z,100560.00
2023-03-26T14:17:50.726Z,100565.00
2023-03-26T14:20:32.511Z,100571.00
2023-03-26T14:23:01.885Z,100579.00
2023-03-26T14:25:32.916Z,100586.00
2023-03-26T14:28:21.459Z,100580.00
2023-03-26T14:30:54.424Z,100592.00
2023-03-26T14:33:30.347Z,100598.00
2023-03-26T14:36:43.385Z,100603.00
2023-03-26T14:39:28.349Z,100607.00
2023-03-26T14:42:13.688Z,100609.00
2023-03-26T14:44:56.452Z,100623.00
2023-03-26T14:47:26.960Z,100625.00
2023-03-26T14:50:08.942Z,100628.00
2023-03-26T14:52:51.889Z,100634.00
2023-03-26T14:56:00.080Z,100641.00
2023-03-26T14:58:54.692Z,100652.00
2023-03-26T15:01:43.301Z,100659.00
2023-03-26T15:04:28.567Z,100673.00
2023-03-26T15:07:18.761Z,100669.00
2023-03-26T15:10:14.298Z,100676.00
2023-03-26T15:13:11.564Z,100690.00
2023-03-26T15:15:54.675Z,100705.00
2023-03-26T15:19:01.497Z,100710.00
2023-03-26T15:22:18.676Z,100712.00
2023-03-26T15:25:00.282Z,100725.00
2023-03-26T15:27:42.177Z,100722.00
2023-03-26T15:30:36.818Z,100736.00
2023-03-26T15:33:35.051Z,100738.00
2023-03-26T15:36:26.646Z,100748.00
2023-03-26T15:39:18.244Z,100748.00
2023-03-26T15:42:05.996Z,100760.00
2023-03-26T15:44:53.705Z,100766.00
2023-03-26T15:47:42.015Z,100776.00
2023-03-26T15:50:18.097Z,100791.00
2023-03-26T15:53:12.801Z,100790.00
2023-03-26T15:55:46.288Z,100795.00
2023-03-26T15:58:39.365Z,100805.00
2023-03-26T16:01:47.305Z,100808.00
2023-03-26T16:04:26.415Z,100820.00
2023-03-26T16:06:57.297Z,100823.00
2023-03-26T16:09:32.462Z,100819.00
2023-03-26T16:12:20.263Z,100835.00
2023-03-26T16:15:04.012Z,100844.00
2023-03-26T16:18:10.362Z,100854.00
2023-03-26T16:20:54.837Z,100859.00
2023-03-26T16:23:47.693Z,100863.00
2023-03-26T16:26:19.659Z,100867.00
2023-03-26T16:28:46.854Z,100870.00
2023-03-26T16:31:37.211Z,100872.00
2023-03-26T16:34:08.374Z,100893.00
2023-03-26T16:36:43.352Z,100893.00
2023-03-26T16:39:19.225Z,100897.00
2023-03-26T16:41:46.927Z,100911.00
2023-03-26T16:44:43.151Z,100908.00
2023-03-26T16:47:20.389Z,100918.00
2023-03-26T16:50:08.968Z,100929.00
2023-03-26T16:52:47.903Z,100926.00
2023-03-26T16:55:28.637Z,100941.00
2023-03-26T16:57:58.301Z,100942.00
2023-03-26T17:00:40.294Z,100942.00
2023-03-26T17:03:25.658Z,100959.00
2023-03-26T17:05:58.226Z,100964.00
2023-03-26T17:08:36.487Z,100976.00
2023-03-26T17:11:20.543Z,100975.00
2023-03-26T17:14:05.457Z,100980.00
2023-03-26T17:16:58.083Z,100990.00
2023-03-26T17:19:35.485Z,100993.00
2023-03-26T17:22:18.536Z,100997.00
2023-03-26T17:25:21.557Z,101006.00
2023-03-26T17:28:16.808Z,101022.00
2023-03-26T17:30:58.276Z,101032.00
2023-03-26T17:33:36.862Z,101038.00
2023-03-26T17:36:12.704Z,101044.00
2023-03-26T17:38:39.329Z,101048.00
2023-03-26T17:41:11.314Z,101055.00
2023-03-26T17:43:45.572Z,101062.00
2023-03-26T17:46:32.978Z,101065.00
2023-03-26T17:49:16.554Z,101075.00
2023-03-26T17:52:15.112Z,101077.00
2023-03-26T17:54:49.138Z,101088.00
2023-03-26T17:57:15.939Z,101085.00
2023-03-26T17:59:44.643Z,101100.00
2023-03-26T18:02:16.041Z,101101.00
2023-03-26T18:04:47.833Z,101104.00
2023-03-26T18:07:58.857Z,101118.00
2023-03-26T18:11:03.096Z,101120.00
2023-03-26T18:13:35.495Z,101131.00
2023-03-26T18:16:17.280Z,101142.00
2023-03-26T18:18:57.873Z,101142.00
2023-03-26T18:21:27.076Z,101151.00
2023-03-26T18:23:54.017Z,101141.00
2023-03-26T18:26:34.434Z,101140.00
2023-03-26T18:29:31.323Z,101141.00
2023-03-26T18:32:07.348Z,101149.00
2023-03-26T18:34:34.518Z,101155.00
2023-03-26T18:37:23.196Z,101163.00
2023-03-26T18:40:00.823Z,101167.00
2023-03-26T18:42:29.681Z,101176.00
2023-03-26T18:45:00.281Z,101186.00
2023-03-26T18:47:30.411Z,101188.00
2023-03-26T18:49:58.251Z,101194.00
2023-03-26T18:52:27.896Z,101212.00
2023-03-26T18:54:55.658Z,101214.00
2023-03-26T18:57:25.144Z,101222.00
2023-03-26T18:59:54.189Z,101226.00
2023-03-26T19:02:21.918Z,101230.00
2023-03-26T19:04:50.953Z,101234.00
2023-03-26T19:07:25.099Z,101237.00
2023-03-26T19:09:56.267Z,101238.00
2023-03-26T19:12:28.289Z,101244.00
2023-03-26T19:15:16.831Z,101253.00
2023-03-26T19:17:47.200Z,101250.00
2023-03-26T19:20:23.399Z,101255.00
2023-03-26T19:22:50.685Z,101260.00
2023-03-26T19:25:22.730Z,101273.00
2023-03-26T19:27:50.818Z,101275.00
2023-03-26T19:30:32.760Z,101278.00
2023-03-26T19:33:20.754Z,101289.00
2023-03-26T19:35:54.384Z,101296.00
2023-03-26T19:38:29.601Z,101302.00
2023-03-26T19:40:58.117Z,101301.00
2023-03-26T19:43:26.266Z,101319.00
2023-03-26T19:46:00.142Z,101311.00
2023-03-26T19:48:45.825Z,101319.00
2023-03-26T19:51:20.111Z,101321.00
2023-03-26T19:53:53.909Z,101319.00
2023-03-26T19:56:21.973Z,101331.00
2023-03-26T19:58:50.153Z,101334.00
2023-03-26T20:01:23.754Z,101346.00
2023-03-26T20:03:54.401Z,101350.00
2023-03-26T20:06:30.861Z,101362.00
2023-03-26T20:09:01.225Z,101370.00
2023-03-26T20:11:38.049Z,101369.00
2023-03-26T20:14:13.851Z,101370.00
2023-03-26T20:16:42.170Z,101375.00
2023-03-26T20:19:11.030Z,101382.00
2023-03-26T20:21:41.230Z,101380.00
2023-03-26T20:24:12.614Z,101387.00
2023-03-26T20:26:39.300Z,101393.00
2023-03-26T20:29:06.147Z,101402.00
2023-03-26T20:31:32.912Z,101417.00
2023-03-26T20:33:59.796Z,101428.00
2023-03-26T20:36:33.857Z,101424.00
2023-03-26T20:39:05.622Z,101430.00
2023-03-26T20:41:33.774Z,101439.00
2023-03-26T20:44:01.049Z,101444.00
2023-03-26T20:46:31.261Z,101452.00
2023-03-26T20:48:58.928Z,101445.00
2023-03-26T20:51:28.224Z,101450.00
2023-03-26T20:53:55.965Z,101461.00
2023-03-26T20:56:23.513Z,101457.00
2023-03-26T20:58:57.598Z,101469.00
2023-03-26T21:01:34.780Z,101455.00
2023-03-26T21:04:04.225Z,101455.00
2023-03-26T21:06:30.942Z,101465.00
2023-03-26T21:08:57.859Z,101462.00
2023-03-26T21:11:53.748Z,101474.00
2023-03-26T21:14:41.568Z,101475.00
2023-03-26T21:17:18.337Z,101474.00
2023-03-26T21:19:45.922Z,101469.00
2023-03-26T21:22:39.229Z,101477.00
2023-03-26T21:25:17.724Z,101478.00
2023-03-26T21:28:28.947Z,101470.00
2023-03-26T21:31:02.511Z,101487.00
2023-03-26T21:33:29.208Z,101485.00
2023-03-26T21:35:57.341Z,101495.00
2023-03-26T21:38:24.945Z,101497.00
2023-03-26T21:40:58.648Z,101509.00
2023-03-26T21:43:26.147Z,101521.00
2023-03-26T21:45:57.414Z,101511.00
2023-03-26T21:48:24.391Z,101518.00
2023-03-26T21:50:51.327Z,101521.00
2023-03-26T21:53:18.206Z,101521.00
2023-03-26T21:56:13.741Z,101527.00
2023-03-26T21:58:58.482Z,101530.00
2023-03-26T22:01:25.104Z,101541.00
2023-03-26T22:04:07.553Z,101551.00
2023-03-26T22:06:55.842Z,101558.00
2023-03-26T22:09:33.944Z,101559.00
2023-03-26T22:12:03.428Z,101563.00
2023-03-26T22:14:29.995Z,101558.00
2023-03-26T22:16:56.969Z,101558.00
2023-03-26T22:19:23.517Z,101566.00
2023-03-26T22:21:51.108Z,101575.00
2023-03-26T22:24:17.978Z,101587.00
2023-03-26T22:26:44.593Z,101606.00
2023-03-26T22:29:12.065Z,101596.00
2023-03-26T22:31:39.721Z,101604.00
2023-03-26T22:34:06.812Z,101606.00
2023-03-26T22:36:34.097Z,101621.00
2023-03-26T22:39:01.821Z,101623.00
2023-03-26T22:41:29.663Z,101638.00
2023-03-26T22:43:59.615Z,101657.00
2023-03-26T22:46:28.826Z,101648.00
2023-03-26T22:48:56.996Z,101660.00
2023-03-26T22:51:23.912Z,101661.00
2023-03-26T22:53:50.824Z,101648.00
2023-03-26T22:56:18.809Z,101652.00
2023-03-26T22:58:47.361Z,101655.00
2023-03-26T23:01:21.339Z,101673.00
2023-03-26T23:03:48.082Z,101667.00
2023-03-26T23:06:15.408Z,101673.00
2023-03-26T23:08:42.512Z,101673.00
2023-03-26T23:11:14.723Z,101682.00
2023-03-26T23:13:42.351Z,101682.00
2023-03-26T23:16:10.191Z,101677.00
2023-03-26T23:18:38.002Z,101690.00
2023-03-26T23:21:12.062Z,101682.00
2023-03-26T23:23:39.729Z,101685.00
2023-03-26T23:26:06.997Z,101691.00
2023-03-26T23:28:34.900Z,101697.00
2023-03-26T23:31:04.662Z,101701.00
2023-03-26T23:33:35.319Z,101711.00
2023-03-26T23:36:08.872Z,101716.00
2023-03-26T23:38:43.700Z,101722.00
2023-03-26T23:41:14.862Z,101721.00
2023-03-26T23:43:53.768Z,101721.00
2023-03-26T23:46:23.771Z,101721.00
2023-03-26T23:48:51.409Z,101723.00
2023-03-26T23:51:20.174Z,101731.00
2023-03-26T23:53:47.872Z,101738.00
2023-03-26T23:56:15.396Z,101737.00
2023-03-26T23:58:42.115Z,101745.00
